createdAt,value
2023-02-09T00:02:16.853Z,54.21
2023-02-09T00:04:45.079Z,54.18
2023-02-09T00:07:13.605Z,54.22
2023-02-09T00:09:41.892Z,54.27
2023-02-09T00:12:28.685Z,54.13
2023-02-09T00:14:57.271Z,54.27
2023-02-09T00:17:25.962Z,54.26
2023-02-09T00:19:55.174Z,54.27
2023-02-09T00:22:23.242Z,54.08
2023-02-09T00:24:51.828Z,54.24
2023-02-09T00:27:19.973Z,54.34
2023-02-09T00:29:48.189Z,54.27
2023-02-09T00:32:18.209Z,54.30
2023-02-09T00:34:46.481Z,54.42
2023-02-09T00:37:14.664Z,54.33
2023-02-09T00:39:43.355Z,54.38
2023-02-09T00:42:11.530Z,54.43
2023-02-09T00:44:40.568Z,54.48
2023-02-09T00:47:09.938Z,54.60
2023-02-09T00:49:40.228Z,54.57
2023-02-09T00:52:09.991Z,54.73
2023-02-09T00:54:39.148Z,54.63
2023-02-09T00:57:07.513Z,54.73
2023-02-09T00:59:36.088Z,54.66
2023-02-09T01:02:05.053Z,54.75
2023-02-09T01:04:34.128Z,54.79
2023-02-09T01:07:02.943Z,54.73
2023-02-09T01:09:32.654Z,54.75
2023-02-09T01:12:05.641Z,54.86
2023-02-09T01:14:35.249Z,54.73
2023-02-09T01:17:03.478Z,54.90
2023-02-09T01:19:33.633Z,54.78
2023-02-09T01:22:01.782Z,54.71
2023-02-09T01:24:30.167Z,54.81
2023-02-09T01:26:58.630Z,54.71
2023-02-09T01:29:26.882Z,54.74
2023-02-09T01:31:55.402Z,54.73
2023-02-09T01:34:24.366Z,54.79
2023-02-09T01:36:52.645Z,54.70
2023-02-09T01:39:21.336Z,54.72
2023-02-09T01:41:49.621Z,54.72
2023-02-09T01:44:17.955Z,54.83
2023-02-09T01:46:48.248Z,54.63
2023-02-09T01:49:23.773Z,54.72
2023-02-09T01:52:01.064Z,54.74
2023-02-09T01:54:47.353Z,54.68
2023-02-09T01:57:20.242Z,54.86
2023-02-09T01:59:51.432Z,54.71
2023-02-09T02:02:19.797Z,54.65
2023-02-09T02:04:50.611Z,54.57
2023-02-09T02:07:31.616Z,54.56
2023-02-09T02:10:00.372Z,54.78
2023-02-09T02:12:29.063Z,54.68
2023-02-09T02:14:57.819Z,54.73
2023-02-09T02:17:33.103Z,54.86
2023-02-09T02:20:46.603Z,54.66
2023-02-09T02:23:27.061Z,54.76
2023-02-09T02:26:26.090Z,54.64
2023-02-09T02:29:04.762Z,54.74
2023-02-09T02:31:35.910Z,54.72
2023-02-09T02:34:12.712Z,54.68
2023-02-09T02:37:05.129Z,54.63
2023-02-09T02:39:51.510Z,54.63
2023-02-09T02:42:49.361Z,54.42
2023-02-09T02:45:23.478Z,54.22
2023-02-09T02:48:11.178Z,54.35
2023-02-09T02:50:42.068Z,54.18
2023-02-09T02:53:10.533Z,54.20
2023-02-09T02:55:39.545Z,54.13
2023-02-09T02:58:08.528Z,53.99
2023-02-09T03:00:41.280Z,54.07
2023-02-09T03:03:14.914Z,54.03
2023-02-09T03:05:43.663Z,54.00
2023-02-09T03:08:12.298Z,54.07
2023-02-09T03:10:41.600Z,53.89
2023-02-09T03:13:21.037Z,53.94
2023-02-09T03:16:07.951Z,53.98
2023-02-09T03:19:04.703Z,53.98
2023-02-09T03:21:33.053Z,53.77
2023-02-09T03:24:11.979Z,53.92
2023-02-09T03:27:18.968Z,53.79
2023-02-09T03:29:48.869Z,53.86
2023-02-09T03:32:16.932Z,53.79
2023-02-09T03:34:46.201Z,53.74
2023-02-09T03:37:14.307Z,53.82
2023-02-09T03:39:42.597Z,53.92
2023-02-09T03:42:10.843Z,53.79
2023-02-09T03:44:39.672Z,53.82
2023-02-09T03:47:08.881Z,54.01
2023-02-09T03:49:40.328Z,53.91
2023-02-09T03:52:10.409Z,53.87
2023-02-09T03:54:40.061Z,54.01
2023-02-09T03:57:08.236Z,53.89
2023-02-09T03:59:37.818Z,53.85
2023-02-09T04:02:07.237Z,53.97
2023-02-09T04:04:36.048Z,53.87
2023-02-09T04:07:04.425Z,53.97
2023-02-09T04:09:33.574Z,54.19
2023-02-09T04:12:01.717Z,54.21
2023-02-09T04:14:31.421Z,54.27
2023-02-09T04:16:59.612Z,54.31
2023-02-09T04:19:27.959Z,54.40
2023-02-09T04:21:59.332Z,54.56
2023-02-09T04:24:29.356Z,54.67
2023-02-09T04:26:58.255Z,54.82
2023-02-09T04:29:27.045Z,54.94
2023-02-09T04:31:56.309Z,55.06
2023-02-09T04:34:24.735Z,55.11
2023-02-09T04:36:56.524Z,55.30
2023-02-09T04:39:25.377Z,55.37
2023-02-09T04:41:54.596Z,55.45
2023-02-09T04:44:23.587Z,55.69
2023-02-09T04:46:51.649Z,55.72
2023-02-09T04:49:19.947Z,55.87
2023-02-09T04:51:48.557Z,55.95
2023-02-09T04:54:16.816Z,56.09
2023-02-09T04:56:45.205Z,56.03
2023-02-09T04:59:32.523Z,55.98
2023-02-09T05:02:01.414Z,55.87
2023-02-09T05:04:30.817Z,55.93
2023-02-09T05:07:10.342Z,55.82
2023-02-09T05:09:38.593Z,55.75
2023-02-09T05:12:10.203Z,55.86
2023-02-09T05:14:39.400Z,55.91
2023-02-09T05:17:07.572Z,55.83
2023-02-09T05:19:36.893Z,55.81
2023-02-09T05:22:05.265Z,55.87
2023-02-09T05:24:34.358Z,56.05
2023-02-09T05:27:02.639Z,56.06
2023-02-09T05:29:32.352Z,55.89
2023-02-09T05:32:00.602Z,55.89
2023-02-09T05:34:29.228Z,55.86
2023-02-09T05:36:57.815Z,55.82
2023-02-09T05:39:25.954Z,55.88
2023-02-09T05:42:12.794Z,55.89
2023-02-09T05:44:51.218Z,55.85
2023-02-09T05:47:21.429Z,55.76
2023-02-09T05:49:49.513Z,56.03
2023-02-09T05:52:18.641Z,56.17
2023-02-09T05:54:47.673Z,56.48
2023-02-09T05:57:17.685Z,56.25
2023-02-09T05:59:45.906Z,56.24
2023-02-09T06:02:14.264Z,56.26
2023-02-09T06:04:42.651Z,56.29
2023-02-09T06:07:12.125Z,56.25
2023-02-09T06:09:40.353Z,56.24
2023-02-09T06:12:08.633Z,56.15
2023-02-09T06:14:37.737Z,56.08
2023-02-09T06:17:08.918Z,55.92
2023-02-09T06:19:39.081Z,55.96
2023-02-09T06:22:07.394Z,55.55
2023-02-09T06:24:35.881Z,55.27
2023-02-09T06:27:04.365Z,55.22
2023-02-09T06:29:33.459Z,54.89
2023-02-09T06:32:01.897Z,54.91
2023-02-09T06:34:30.643Z,54.82
2023-02-09T06:36:59.543Z,54.82
2023-02-09T06:39:28.226Z,54.55
2023-02-09T06:41:56.444Z,54.52
2023-02-09T06:44:24.918Z,54.49
2023-02-09T06:46:53.171Z,54.55
2023-02-09T06:49:24.121Z,54.51
2023-02-09T06:51:52.903Z,54.24
2023-02-09T06:54:21.795Z,54.17
2023-02-09T06:56:50.186Z,53.97
2023-02-09T06:59:18.368Z,54.00
2023-02-09T07:01:54.635Z,53.96
2023-02-09T07:04:23.524Z,53.90
2023-02-09T07:06:51.597Z,53.80
2023-02-09T07:09:19.775Z,53.54
2023-02-09T07:11:47.976Z,53.39
2023-02-09T07:14:16.483Z,53.09
2023-02-09T07:16:44.845Z,52.88
2023-02-09T07:19:13.212Z,52.64
2023-02-09T07:21:41.599Z,52.47
2023-02-09T07:24:09.870Z,52.25
2023-02-09T07:26:38.873Z,52.30
2023-02-09T07:29:07.255Z,52.21
2023-02-09T07:31:36.001Z,52.26
2023-02-09T07:34:04.945Z,52.22
2023-02-09T07:36:33.433Z,52.10
2023-02-09T07:39:02.087Z,52.16
2023-02-09T07:41:30.806Z,51.98
2023-02-09T07:44:00.018Z,51.98
2023-02-09T07:46:28.713Z,51.92
2023-02-09T07:49:00.062Z,51.87
2023-02-09T07:51:30.519Z,51.80
2023-02-09T07:54:00.061Z,51.88
2023-02-09T07:56:28.492Z,51.82
2023-02-09T07:58:57.180Z,51.75
2023-02-09T08:01:25.288Z,51.63
2023-02-09T08:03:53.638Z,51.60
2023-02-09T08:06:42.611Z,51.42
2023-02-09T08:09:15.033Z,51.24
2023-02-09T08:12:05.282Z,51.24
2023-02-09T08:14:41.740Z,51.18
2023-02-09T08:17:23.305Z,51.23
2023-02-09T08:20:03.846Z,51.04
2023-02-09T08:22:34.076Z,50.95
2023-02-09T08:25:02.353Z,50.95
2023-02-09T08:27:31.450Z,50.88
2023-02-09T08:29:59.839Z,50.87
2023-02-09T08:32:30.467Z,50.71
2023-02-09T08:34:58.688Z,50.68
2023-02-09T08:37:27.048Z,50.54
2023-02-09T08:39:55.628Z,50.47
2023-02-09T08:42:24.208Z,50.32
2023-02-09T08:44:53.820Z,50.17
2023-02-09T08:47:23.121Z,50.09
2023-02-09T08:49:51.305Z,50.11
2023-02-09T08:52:20.095Z,49.99
2023-02-09T08:54:48.280Z,49.96
2023-02-09T08:57:16.674Z,49.97
2023-02-09T08:59:44.993Z,49.83
2023-02-09T09:02:13.112Z,49.91
2023-02-09T09:04:41.197Z,49.89
2023-02-09T09:07:09.581Z,49.89
2023-02-09T09:09:37.940Z,49.74
2023-02-09T09:12:06.252Z,49.49
2023-02-09T09:14:34.946Z,49.53
2023-02-09T09:17:03.229Z,49.36
2023-02-09T09:19:31.841Z,49.22
2023-02-09T09:22:03.740Z,49.25
2023-02-09T09:24:33.460Z,49.02
2023-02-09T09:27:01.752Z,49.06
2023-02-09T09:29:34.445Z,48.87
2023-02-09T09:32:02.989Z,48.88
2023-02-09T09:34:31.626Z,48.79
2023-02-09T09:36:59.831Z,48.68
2023-02-09T09:39:28.259Z,48.69
2023-02-09T09:41:59.512Z,48.64
2023-02-09T09:44:35.575Z,48.75
2023-02-09T09:47:07.993Z,48.73
2023-02-09T09:49:36.239Z,48.73
2023-02-09T09:52:12.628Z,48.74
2023-02-09T09:54:41.726Z,48.79
2023-02-09T09:57:23.712Z,48.48
2023-02-09T09:59:52.662Z,48.32
2023-02-09T10:02:27.332Z,48.21
2023-02-09T10:05:18.856Z,48.11
2023-02-09T10:07:57.969Z,48.04
2023-02-09T10:10:41.680Z,47.96
2023-02-09T10:13:22.171Z,48.02
2023-02-09T10:15:51.931Z,48.12
2023-02-09T10:18:25.706Z,48.08
2023-02-09T10:20:56.893Z,48.21
2023-02-09T10:23:36.879Z,48.34
2023-02-09T10:26:25.228Z,48.32
2023-02-09T10:29:00.017Z,48.44
2023-02-09T10:31:37.043Z,48.32
2023-02-09T10:34:08.277Z,48.23
2023-02-09T10:36:38.503Z,48.27
2023-02-09T10:39:19.107Z,48.32
2023-02-09T10:41:51.947Z,48.40
2023-02-09T10:44:22.067Z,48.43
2023-02-09T10:46:53.283Z,48.31
2023-02-09T10:49:31.781Z,48.32
2023-02-09T10:52:10.763Z,48.42
2023-02-09T10:54:43.814Z,48.38
2023-02-09T10:57:28.042Z,48.38
2023-02-09T11:00:01.004Z,48.42
2023-02-09T11:02:50.033Z,48.37
2023-02-09T11:05:21.494Z,48.26
2023-02-09T11:08:22.246Z,48.27
2023-02-09T11:11:29.788Z,48.16
2023-02-09T11:13:58.511Z,48.02
2023-02-09T11:16:57.155Z,47.93
2023-02-09T11:20:00.723Z,48.01
2023-02-09T11:22:51.017Z,48.17
2023-02-09T11:25:21.862Z,48.43
2023-02-09T11:27:56.283Z,48.57
2023-02-09T11:30:24.587Z,48.47
2023-02-09T11:33:22.564Z,48.48
2023-02-09T11:36:00.525Z,48.62
2023-02-09T11:38:36.896Z,48.80
2023-02-09T11:41:27.894Z,49.00
2023-02-09T11:43:56.272Z,49.10
2023-02-09T11:46:27.893Z,48.79
2023-02-09T11:49:03.488Z,48.53
2023-02-09T11:51:34.924Z,48.40
2023-02-09T11:54:09.272Z,48.15
2023-02-09T11:56:42.102Z,48.25
2023-02-09T11:59:15.841Z,48.11
2023-02-09T12:02:05.406Z,47.99
2023-02-09T12:04:46.440Z,47.98
2023-02-09T12:07:32.826Z,47.90
2023-02-09T12:10:24.113Z,47.87
2023-02-09T12:12:59.347Z,47.90
2023-02-09T12:15:35.605Z,47.90
2023-02-09T12:18:13.476Z,47.99
2023-02-09T12:21:01.443Z,48.06
2023-02-09T12:23:33.830Z,47.87
2023-02-09T12:26:12.251Z,47.79
2023-02-09T12:28:44.003Z,47.80
2023-02-09T12:31:26.484Z,47.72
2023-02-09T12:33:57.816Z,47.92
2023-02-09T12:36:35.406Z,48.06
2023-02-09T12:39:05.374Z,48.03
2023-02-09T12:41:34.368Z,48.15
2023-02-09T12:44:12.119Z,48.37
2023-02-09T12:46:56.980Z,48.42
2023-02-09T12:49:28.321Z,48.49
2023-02-09T12:51:59.678Z,48.55
2023-02-09T12:54:50.477Z,48.75
2023-02-09T12:57:19.167Z,48.71
2023-02-09T12:59:50.865Z,48.90
2023-02-09T13:02:48.606Z,48.92
2023-02-09T13:05:19.734Z,48.98
2023-02-09T13:08:11.743Z,48.77
2023-02-09T13:11:03.566Z,48.90
2023-02-09T13:13:34.405Z,49.02
2023-02-09T13:16:03.684Z,48.96
2023-02-09T13:19:00.136Z,48.99
2023-02-09T13:21:47.491Z,48.97
2023-02-09T13:24:18.474Z,49.08
2023-02-09T13:26:50.707Z,49.24
2023-02-09T13:29:21.788Z,49.40
2023-02-09T13:32:12.615Z,49.37
2023-02-09T13:34:57.290Z,49.40
2023-02-09T13:37:28.312Z,49.49
2023-02-09T13:40:01.254Z,49.65
2023-02-09T13:42:31.330Z,49.78
2023-02-09T13:44:59.632Z,49.65
2023-02-09T13:47:28.288Z,49.59
2023-02-09T13:49:58.431Z,49.78
2023-02-09T13:52:27.109Z,49.81
2023-02-09T13:54:55.540Z,49.96
2023-02-09T13:57:23.927Z,50.24
2023-02-09T13:59:53.175Z,50.31
2023-02-09T14:02:24.164Z,50.51
2023-02-09T14:04:55.911Z,50.54
2023-02-09T14:07:25.703Z,50.50
2023-02-09T14:09:58.245Z,50.62
2023-02-09T14:12:52.646Z,50.69
2023-02-09T14:15:52.180Z,50.77
2023-02-09T14:18:43.572Z,50.84
2023-02-09T14:21:11.832Z,50.80
2023-02-09T14:23:43.775Z,50.88
2023-02-09T14:26:14.839Z,50.89
2023-02-09T14:28:45.820Z,50.91
2023-02-09T14:31:36.366Z,50.82
2023-02-09T14:34:04.591Z,50.89
2023-02-09T14:36:34.780Z,50.90
2023-02-09T14:39:21.202Z,50.89
2023-02-09T14:42:08.272Z,50.88
2023-02-09T14:44:47.500Z,50.88
2023-02-09T14:47:31.141Z,51.10
2023-02-09T14:49:59.967Z,50.97
2023-02-09T14:52:31.693Z,50.93
2023-02-09T14:55:02.333Z,50.85
2023-02-09T14:57:32.177Z,50.74
2023-02-09T15:00:01.250Z,50.69
2023-02-09T15:02:31.139Z,50.59
2023-02-09T15:05:03.539Z,50.54
2023-02-09T15:07:35.160Z,50.59
2023-02-09T15:10:16.125Z,50.40
2023-02-09T15:12:45.067Z,50.40
2023-02-09T15:15:15.613Z,50.45
2023-02-09T15:17:44.339Z,50.35
2023-02-09T15:20:16.793Z,50.48
2023-02-09T15:22:45.050Z,50.31
2023-02-09T15:25:14.265Z,50.45
2023-02-09T15:27:51.554Z,50.39
2023-02-09T15:30:27.783Z,50.31
2023-02-09T15:32:55.939Z,50.20
2023-02-09T15:35:25.583Z,50.20
2023-02-09T15:37:59.644Z,50.19
2023-02-09T15:40:52.138Z,50.13
2023-02-09T15:43:41.142Z,49.92
2023-02-09T15:46:29.498Z,49.81
2023-02-09T15:48:57.985Z,49.62
2023-02-09T15:51:28.670Z,49.50
2023-02-09T15:53:58.183Z,49.38
2023-02-09T15:56:26.664Z,49.47
2023-02-09T15:58:57.377Z,49.42
2023-02-09T16:01:25.681Z,49.39
2023-02-09T16:03:58.422Z,49.38
2023-02-09T16:06:31.202Z,49.26
2023-02-09T16:09:01.348Z,49.22
2023-02-09T16:11:36.199Z,49.30
2023-02-09T16:14:06.223Z,49.29
2023-02-09T16:16:34.404Z,49.15
2023-02-09T16:19:03.110Z,49.27
2023-02-09T16:21:32.390Z,49.24
2023-02-09T16:24:02.071Z,49.15
2023-02-09T16:26:31.217Z,49.14
2023-02-09T16:28:59.372Z,49.14
2023-02-09T16:31:27.928Z,49.17
2023-02-09T16:33:56.347Z,49.25
2023-02-09T16:36:25.034Z,49.20
2023-02-09T16:38:53.226Z,49.41
2023-02-09T16:41:40.244Z,49.29
2023-02-09T16:44:22.780Z,49.54
2023-02-09T16:46:53.685Z,49.51
2023-02-09T16:49:38.738Z,49.62
2023-02-09T16:52:13.800Z,49.73
2023-02-09T16:54:54.026Z,49.82
2023-02-09T16:57:26.004Z,49.70
2023-02-09T16:59:54.247Z,49.82
2023-02-09T17:02:29.938Z,49.79
2023-02-09T17:04:58.711Z,49.71
2023-02-09T17:07:35.705Z,49.75
2023-02-09T17:10:17.403Z,49.94
2023-02-09T17:12:45.557Z,49.92
2023-02-09T17:15:28.811Z,49.98
2023-02-09T17:18:04.355Z,50.01
2023-02-09T17:20:41.514Z,50.07
2023-02-09T17:23:13.882Z,50.09
2023-02-09T17:25:42.164Z,50.14
2023-02-09T17:28:11.558Z,50.30
2023-02-09T17:30:40.468Z,50.26
2023-02-09T17:33:12.636Z,50.23
2023-02-09T17:38:31.304Z,50.19
2023-02-09T17:41:02.219Z,50.19
2023-02-09T17:43:30.421Z,50.15
2023-02-09T17:45:59.076Z,50.41
2023-02-09T17:48:27.287Z,50.50
2023-02-09T17:50:58.044Z,50.51
2023-02-09T17:53:28.460Z,50.63
2023-02-09T17:55:56.846Z,50.63
2023-02-09T17:58:25.254Z,50.60
2023-02-09T18:00:54.427Z,50.68
2023-02-09T18:03:24.895Z,50.60
2023-02-09T18:05:55.899Z,50.80
2023-02-09T18:08:24.993Z,50.97
2023-02-09T18:10:53.363Z,51.08
2023-02-09T18:13:23.820Z,51.22
2023-02-09T18:15:52.511Z,51.46
2023-02-09T18:18:23.852Z,51.49
2023-02-09T18:20:52.576Z,51.50
2023-02-09T18:23:20.859Z,51.64
2023-02-09T18:25:49.841Z,51.73
2023-02-09T18:28:18.769Z,51.71
2023-02-09T18:30:47.042Z,51.71
2023-02-09T18:33:16.615Z,51.66
2023-02-09T18:35:45.301Z,51.73
2023-02-09T18:38:14.545Z,51.69
2023-02-09T18:40:42.993Z,51.76
2023-02-09T18:43:11.788Z,51.87
2023-02-09T18:45:40.377Z,51.95
2023-02-09T18:48:10.711Z,51.93
2023-02-09T18:50:40.355Z,52.03
2023-02-09T18:53:10.334Z,52.11
2023-02-09T18:55:39.023Z,51.90
2023-02-09T18:58:09.543Z,52.01
2023-02-09T19:00:38.369Z,51.99
2023-02-09T19:03:07.158Z,52.21
2023-02-09T19:05:35.932Z,52.18
2023-02-09T19:08:07.418Z,52.12
2023-02-09T19:10:36.210Z,52.17
2023-02-09T19:13:04.427Z,52.02
2023-02-09T19:15:34.328Z,52.02
2023-02-09T19:18:02.685Z,51.75
2023-02-09T19:20:31.510Z,51.92
2023-02-09T19:22:59.746Z,51.89
2023-02-09T19:25:28.339Z,51.80
2023-02-09T19:27:56.961Z,51.75
2023-02-09T19:30:26.671Z,51.85
2023-02-09T19:32:57.764Z,51.81
2023-02-09T19:35:25.924Z,51.68
2023-02-09T19:37:55.061Z,51.69
2023-02-09T19:40:37.013Z,51.72
2023-02-09T19:43:06.308Z,51.53
2023-02-09T19:45:38.623Z,51.55
2023-02-09T19:48:07.525Z,51.47
2023-02-09T19:50:37.066Z,51.47
2023-02-09T19:53:05.827Z,51.29
2023-02-09T19:55:34.120Z,51.21
2023-02-09T19:58:02.385Z,51.17
2023-02-09T20:00:31.592Z,51.00
2023-02-09T20:03:00.178Z,50.86
2023-02-09T20:05:28.765Z,50.53
2023-02-09T20:07:57.273Z,50.32
2023-02-09T20:10:26.053Z,50.08
2023-02-09T20:12:54.309Z,49.95
2023-02-09T20:15:22.706Z,49.63
2023-02-09T20:17:51.077Z,49.27
2023-02-09T20:20:19.680Z,49.18
2023-02-09T20:22:49.815Z,49.04
2023-02-09T20:25:18.287Z,48.85
2023-02-09T20:27:47.827Z,48.71
2023-02-09T20:30:16.389Z,48.59
2023-02-09T20:32:44.664Z,48.41
2023-02-09T20:35:13.010Z,48.34
2023-02-09T20:37:41.332Z,48.23
2023-02-09T20:40:12.067Z,48.30
2023-02-09T20:42:59.662Z,48.04
2023-02-09T20:45:46.629Z,48.07
2023-02-09T20:48:14.922Z,48.18
2023-02-09T20:50:45.574Z,48.18
2023-02-09T20:53:14.016Z,48.43
2023-02-09T20:55:43.514Z,48.44
2023-02-09T20:58:13.837Z,48.50
2023-02-09T21:00:42.589Z,48.44
2023-02-09T21:03:11.656Z,48.34
2023-02-09T21:05:39.894Z,48.44
2023-02-09T21:08:09.449Z,48.57
2023-02-09T21:10:38.627Z,48.67
2023-02-09T21:13:08.838Z,48.64
2023-02-09T21:15:41.739Z,48.64
2023-02-09T21:18:10.212Z,48.44
2023-02-09T21:20:39.023Z,48.33
2023-02-09T21:23:07.281Z,48.16
2023-02-09T21:25:36.895Z,48.10
2023-02-09T21:28:05.146Z,47.77
2023-02-09T21:30:33.866Z,47.81
2023-02-09T21:33:02.257Z,47.76
2023-02-09T21:35:31.287Z,47.79
2023-02-09T21:37:59.389Z,47.59
2023-02-09T21:40:28.164Z,47.43
2023-02-09T21:42:56.340Z,47.45
2023-02-09T21:45:26.519Z,47.49
2023-02-09T21:47:54.762Z,47.32
2023-02-09T21:50:23.184Z,47.13
2023-02-09T21:52:51.569Z,46.87
2023-02-09T21:55:20.585Z,46.85
2023-02-09T21:57:48.645Z,46.67
2023-02-09T22:00:17.643Z,46.63
2023-02-09T22:02:45.800Z,46.20
2023-02-09T22:05:14.134Z,46.27
2023-02-09T22:07:45.759Z,46.41
2023-02-09T22:10:14.365Z,46.11
2023-02-09T22:12:42.831Z,46.07
2023-02-09T22:15:11.921Z,45.91
2023-02-09T22:17:41.132Z,45.66
2023-02-09T22:20:11.172Z,45.64
2023-02-09T22:22:40.324Z,45.61
2023-02-09T22:25:08.832Z,45.45
2023-02-09T22:27:37.219Z,45.26
2023-02-09T22:30:06.212Z,45.23
2023-02-09T22:32:34.477Z,45.13
2023-02-09T22:35:02.671Z,44.94
2023-02-09T22:37:31.157Z,44.78
2023-02-09T22:39:59.744Z,44.75
2023-02-09T22:42:27.908Z,44.49
2023-02-09T22:44:56.407Z,44.48
2023-02-09T22:47:24.587Z,44.34
2023-02-09T22:49:52.879Z,44.31
2023-02-09T22:52:21.154Z,44.02
2023-02-09T22:54:49.436Z,44.05
2023-02-09T22:57:17.676Z,43.85
2023-02-09T22:59:46.106Z,43.91
2023-02-09T23:02:14.286Z,43.93
2023-02-09T23:04:42.500Z,43.96
2023-02-09T23:07:15.556Z,44.08
2023-02-09T23:09:43.741Z,44.21
2023-02-09T23:12:11.817Z,44.09
2023-02-09T23:14:40.316Z,44.14
2023-02-09T23:17:08.589Z,44.20
2023-02-09T23:19:40.368Z,44.15
2023-02-09T23:22:08.829Z,44.18
2023-02-09T23:24:38.854Z,44.37
2023-02-09T23:27:07.224Z,44.33
2023-02-09T23:29:35.504Z,44.41
2023-02-09T23:32:03.932Z,44.58
2023-02-09T23:34:33.716Z,44.82
2023-02-09T23:37:13.337Z,44.63
2023-02-09T23:39:47.465Z,44.73
2023-02-09T23:42:18.277Z,44.92
2023-02-09T23:44:46.888Z,45.04
2023-02-09T23:47:15.172Z,44.87
2023-02-09T23:49:43.348Z,45.01
2023-02-09T23:52:11.632Z,44.89
2023-02-09T23:54:39.713Z,44.85
2023-02-09T23:57:08.708Z,44.93
2023-02-09T23:59:39.033Z,45.09
